createdAt,value
2023-12-09T00:00:24.444Z,101134.53
2023-12-09T00:02:50.909Z,101196.06
2023-12-09T00:05:17.355Z,101213.50
2023-12-09T00:07:43.769Z,101159.00
2023-12-09T00:10:10.452Z,101208.81
2023-12-09T00:12:36.939Z,101211.91
2023-12-09T00:15:05.439Z,101188.97
2023-12-09T00:17:32.292Z,101138.34
2023-12-09T00:20:00.355Z,101212.19
2023-12-09T00:22:27.235Z,101170.47
2023-12-09T00:24:53.893Z,101145.91
2023-12-09T00:27:20.327Z,101090.19
2023-12-09T00:29:46.864Z,101194.81
2023-12-09T00:32:13.359Z,101174.38
2023-12-09T00:34:39.790Z,101192.59
2023-12-09T00:37:06.166Z,101155.28
2023-12-09T00:39:32.609Z,101212.25
2023-12-09T00:41:59.110Z,101149.78
2023-12-09T00:44:25.487Z,101042.78
2023-12-09T00:46:52.177Z,101124.97
2023-12-09T00:49:19.292Z,101204.50
2023-12-09T00:51:45.721Z,101187.97
2023-12-09T00:54:12.186Z,101200.16
2023-12-09T00:56:38.565Z,101166.13
2023-12-09T00:59:06.974Z,101134.69
2023-12-09T01:01:34.828Z,101164.22
2023-12-09T01:04:02.208Z,101200.50
2023-12-09T01:06:29.969Z,101196.31
2023-12-09T01:08:56.918Z,101205.44
2023-12-09T01:11:24.855Z,101162.06
2023-12-09T01:13:51.318Z,101086.81
2023-12-09T01:16:17.718Z,101212.66
2023-12-09T01:18:44.188Z,101207.13
2023-12-09T01:21:10.735Z,101147.97
2023-12-09T01:23:37.335Z,101201.53
2023-12-09T01:26:03.932Z,101180.88
2023-12-09T01:28:30.315Z,101128.94
2023-12-09T01:30:56.689Z,101208.78
2023-12-09T01:33:23.247Z,101165.53
2023-12-09T01:35:49.672Z,101149.97
2023-12-09T01:38:16.104Z,101134.78
2023-12-09T01:40:42.482Z,101144.75
2023-12-09T01:43:10.675Z,101145.63
2023-12-09T01:45:37.159Z,101038.44
2023-12-09T01:48:05.423Z,101134.00
2023-12-09T01:50:32.148Z,101158.91
2023-12-09T01:52:59.078Z,101187.66
2023-12-09T01:55:25.602Z,101135.38
2023-12-09T01:57:53.571Z,101119.75
2023-12-09T02:00:22.252Z,101126.91
2023-12-09T02:02:49.194Z,101153.47
2023-12-09T02:05:15.894Z,101161.78
2023-12-09T02:07:42.294Z,101181.97
2023-12-09T02:10:08.911Z,101180.56
2023-12-09T02:13:06.159Z,101154.66
2023-12-09T02:15:41.286Z,101144.41
2023-12-09T02:18:08.923Z,101164.84
2023-12-09T02:20:35.841Z,101033.94
2023-12-09T02:23:12.930Z,101106.25
2023-12-09T02:25:40.791Z,101088.06
2023-12-09T02:28:14.791Z,101049.44
2023-12-09T02:30:51.221Z,101174.03
2023-12-09T02:33:19.673Z,101134.25
2023-12-09T02:35:48.634Z,101122.66
2023-12-09T02:38:17.436Z,101129.25
2023-12-09T02:40:45.748Z,101101.88
2023-12-09T02:43:13.370Z,101155.56
2023-12-09T02:45:40.060Z,101144.75
2023-12-09T02:48:07.016Z,101111.31
2023-12-09T02:50:34.135Z,101160.53
2023-12-09T02:53:00.572Z,101026.03
2023-12-09T02:55:26.984Z,101128.53
2023-12-09T02:57:53.357Z,101136.84
2023-12-09T03:00:19.942Z,101140.75
2023-12-09T03:02:46.446Z,101072.00
2023-12-09T03:05:12.958Z,101108.72
2023-12-09T03:07:39.457Z,101119.22
2023-12-09T03:10:06.236Z,101077.50
2023-12-09T03:12:32.749Z,101099.38
2023-12-09T03:14:59.172Z,101125.34
2023-12-09T03:17:25.695Z,101116.78
2023-12-09T03:19:52.104Z,101100.78
2023-12-09T03:22:18.639Z,101123.13
2023-12-09T03:24:45.062Z,101110.75
2023-12-09T03:27:11.568Z,101131.16
2023-12-09T03:29:37.981Z,101099.97
2023-12-09T03:32:04.802Z,101120.09
2023-12-09T03:34:31.390Z,101103.25
2023-12-09T03:36:57.864Z,101086.44
2023-12-09T03:39:24.493Z,101083.41
2023-12-09T03:41:51.096Z,101079.28
2023-12-09T03:44:17.759Z,101112.97
2023-12-09T03:46:44.179Z,101088.72
2023-12-09T03:49:10.798Z,101028.28
2023-12-09T03:51:37.312Z,101090.09
2023-12-09T03:54:03.937Z,101060.34
2023-12-09T03:56:30.494Z,101108.91
2023-12-09T03:58:56.858Z,101056.47
2023-12-09T04:01:25.680Z,101103.38
2023-12-09T04:03:52.636Z,101097.31
2023-12-09T04:06:19.290Z,101076.88
2023-12-09T04:08:45.804Z,101076.88
2023-12-09T04:11:12.136Z,101103.38
2023-12-09T04:13:38.513Z,101099.25
2023-12-09T04:16:07.038Z,101086.28
2023-12-09T04:18:33.612Z,101067.25
2023-12-09T04:21:00.071Z,101092.38
2023-12-09T04:23:26.583Z,101076.38
2023-12-09T04:25:52.994Z,101068.94
2023-12-09T04:28:19.411Z,100959.47
2023-12-09T04:30:45.936Z,101087.97
2023-12-09T04:33:12.376Z,101083.84
2023-12-09T04:35:38.857Z,101086.88
2023-12-09T04:38:05.978Z,101095.44
2023-12-09T04:40:32.337Z,101086.84
2023-12-09T04:42:58.729Z,101069.22
2023-12-09T04:45:25.135Z,101099.00
2023-12-09T04:47:52.207Z,101071.16
2023-12-09T04:50:18.840Z,101077.22
2023-12-09T04:52:45.252Z,101100.94
2023-12-09T04:55:11.651Z,101076.94
2023-12-09T04:57:38.622Z,101104.78
2023-12-09T05:00:06.825Z,101099.03
2023-12-09T05:02:33.444Z,101093.22
2023-12-09T05:04:59.814Z,101062.59
2023-12-09T05:07:27.377Z,101102.03
2023-12-09T05:09:54.122Z,101065.91
2023-12-09T05:12:20.915Z,101093.50
2023-12-09T05:14:47.508Z,101070.06
2023-12-09T05:17:14.005Z,101092.69
2023-12-09T05:19:40.430Z,101081.94
2023-12-09T05:22:07.515Z,101073.91
2023-12-09T05:24:34.018Z,101057.09
2023-12-09T05:27:00.502Z,101020.44
2023-12-09T05:29:26.961Z,101057.38
2023-12-09T05:31:53.333Z,101039.19
2023-12-09T05:34:19.799Z,101052.16
2023-12-09T05:36:46.190Z,101045.78
2023-12-09T05:39:12.531Z,101062.06
2023-12-09T05:41:42.689Z,101049.41
2023-12-09T05:44:09.146Z,101064.81
2023-12-09T05:46:37.414Z,101064.84
2023-12-09T05:49:04.025Z,101070.34
2023-12-09T05:51:30.767Z,101060.69
2023-12-09T05:53:57.237Z,101045.78
2023-12-09T05:56:23.686Z,101052.41
2023-12-09T05:58:50.196Z,101049.94
2023-12-09T06:01:16.730Z,101038.06
2023-12-09T06:03:43.160Z,101037.53
2023-12-09T06:06:11.144Z,101049.13
2023-12-09T06:08:37.628Z,101064.28
2023-12-09T06:11:04.239Z,101064.28
2023-12-09T06:13:32.233Z,101067.03
2023-12-09T06:15:58.647Z,101062.34
2023-12-09T06:18:26.229Z,101051.84
2023-12-09T06:20:52.700Z,101046.91
2023-12-09T06:23:19.062Z,101058.22
2023-12-09T06:25:45.584Z,101035.88
2023-12-09T06:28:11.984Z,101046.34
2023-12-09T06:30:38.572Z,101011.34
2023-12-09T06:33:05.223Z,101056.00
2023-12-09T06:35:31.787Z,101012.44
2023-12-09T06:37:58.581Z,101032.00
2023-12-09T06:40:24.997Z,101040.00
2023-12-09T06:42:51.728Z,101024.28
2023-12-09T06:45:18.427Z,101036.16
2023-12-09T06:47:44.966Z,100991.78
2023-12-09T06:50:12.224Z,101042.47
2023-12-09T06:52:38.708Z,101024.81
2023-12-09T06:55:05.490Z,101036.41
2023-12-09T06:57:31.989Z,101036.94
2023-12-09T06:59:58.420Z,101019.03
2023-12-09T07:02:25.036Z,100995.59
2023-12-09T07:04:51.795Z,101032.25
2023-12-09T07:07:21.993Z,101011.84
2023-12-09T07:09:49.038Z,101032.53
2023-12-09T07:12:15.532Z,101024.00
2023-12-09T07:14:41.999Z,101041.94
2023-12-09T07:17:08.337Z,101043.00
2023-12-09T07:19:35.031Z,101044.69
2023-12-09T07:22:04.464Z,101021.25
2023-12-09T07:24:31.441Z,101009.09
2023-12-09T07:26:57.963Z,101029.78
2023-12-09T07:29:26.518Z,101031.16
2023-12-09T07:31:53.863Z,101029.78
2023-12-09T07:34:21.508Z,101014.91
2023-12-09T07:36:48.103Z,101035.56
2023-12-09T07:39:14.605Z,101039.16
2023-12-09T07:41:42.741Z,101022.34
2023-12-09T07:44:09.223Z,101033.63
2023-12-09T07:46:35.649Z,101018.47
2023-12-09T07:49:02.080Z,100986.25
2023-12-09T07:51:28.974Z,101025.63
2023-12-09T07:53:55.495Z,101028.34
2023-12-09T07:56:21.900Z,101021.50
2023-12-09T07:58:48.357Z,101035.28
2023-12-09T08:01:14.854Z,101023.13
2023-12-09T08:03:41.705Z,101027.81
2023-12-09T08:06:08.804Z,101003.84
2023-12-09T08:08:36.134Z,100992.56
2023-12-09T08:11:04.083Z,101026.72
2023-12-09T08:13:30.810Z,101031.41
2023-12-09T08:15:57.159Z,101029.78
2023-12-09T08:18:23.945Z,101033.59
2023-12-09T08:20:50.492Z,100998.31
2023-12-09T08:23:16.931Z,101011.28
2023-12-09T08:25:44.680Z,101019.81
2023-12-09T08:28:11.825Z,101019.25
2023-12-09T08:30:40.258Z,100986.19
2023-12-09T08:33:06.856Z,100977.91
2023-12-09T08:35:33.591Z,100994.97
2023-12-09T08:38:00.136Z,101002.69
2023-12-09T08:40:26.641Z,100961.09
2023-12-09T08:42:52.989Z,100995.25
2023-12-09T08:45:19.538Z,100996.31
2023-12-09T08:47:46.357Z,100996.56
2023-12-09T08:50:22.032Z,100988.03
2023-12-09T08:52:52.237Z,100996.56
2023-12-09T08:55:18.968Z,100981.44
2023-12-09T08:57:46.317Z,100977.31
2023-12-09T09:00:15.152Z,100985.25
2023-12-09T09:02:41.770Z,100997.38
2023-12-09T09:05:08.702Z,100995.72
2023-12-09T09:07:39.819Z,100979.97
2023-12-09T09:10:09.448Z,100970.88
2023-12-09T09:12:35.874Z,100968.13
2023-12-09T09:15:06.014Z,100919.13
2023-12-09T09:17:36.091Z,100979.41
2023-12-09T09:20:04.479Z,100982.16
2023-12-09T09:22:30.927Z,100942.22
2023-12-09T09:24:59.177Z,100981.31
2023-12-09T09:27:26.616Z,100970.06
2023-12-09T09:29:54.027Z,100993.50
2023-12-09T09:32:20.515Z,100973.31
2023-12-09T09:34:47.007Z,100977.38
2023-12-09T09:37:13.440Z,100975.81
2023-12-09T09:39:39.850Z,100970.28
2023-12-09T09:42:33.002Z,100975.22
2023-12-09T09:45:15.584Z,100958.41
2023-12-09T09:47:42.862Z,100959.47
2023-12-09T09:50:10.241Z,100963.88
2023-12-09T09:52:38.751Z,100955.06
2023-12-09T09:55:07.587Z,100945.38
2023-12-09T09:57:34.890Z,100934.66
2023-12-09T10:00:01.924Z,100933.13
2023-12-09T10:02:28.935Z,100937.38
2023-12-09T10:04:55.524Z,100899.63
2023-12-09T10:07:22.740Z,100914.69
2023-12-09T10:09:50.089Z,100900.16
2023-12-09T10:12:16.651Z,100916.91
2023-12-09T10:14:43.924Z,100895.03
2023-12-09T10:17:10.889Z,100876.56
2023-12-09T10:19:37.718Z,100864.44
2023-12-09T10:22:04.344Z,100855.56
2023-12-09T10:24:30.689Z,100876.19
2023-12-09T10:26:57.833Z,100861.81
2023-12-09T10:29:25.749Z,100856.59
2023-12-09T10:31:52.186Z,100805.16
2023-12-09T10:34:19.456Z,100861.06
2023-12-09T10:36:46.195Z,100833.47
2023-12-09T10:39:12.723Z,100813.88
2023-12-09T10:41:39.081Z,100824.25
2023-12-09T10:44:05.717Z,100816.78
2023-12-09T10:46:32.077Z,100837.44
2023-12-09T10:48:58.861Z,100826.47
2023-12-09T10:51:25.478Z,100827.59
2023-12-09T10:53:51.897Z,100832.75
2023-12-09T10:56:19.613Z,100791.72
2023-12-09T10:58:47.717Z,100763.13
2023-12-09T11:01:17.177Z,100793.84
2023-12-09T11:03:43.697Z,100788.03
2023-12-09T11:06:11.562Z,100790.78
2023-12-09T11:08:39.596Z,100784.66
2023-12-09T11:11:08.996Z,100770.59
2023-12-09T11:13:36.044Z,100763.97
2023-12-09T11:16:10.384Z,100740.34
2023-12-09T11:18:37.130Z,100748.00
2023-12-09T11:21:04.918Z,100750.16
2023-12-09T11:23:31.714Z,100747.41
2023-12-09T11:25:58.167Z,100744.34
2023-12-09T11:28:25.663Z,100720.84
2023-12-09T11:30:57.130Z,100735.06
2023-12-09T11:33:25.205Z,100719.38
2023-12-09T11:35:53.559Z,100697.16
2023-12-09T11:38:20.921Z,100710.28
2023-12-09T11:40:47.774Z,100691.84
2023-12-09T11:43:15.213Z,100690.03
2023-12-09T11:45:42.085Z,100702.16
2023-12-09T11:48:10.155Z,100700.75
2023-12-09T11:50:40.474Z,100699.56
2023-12-09T11:53:06.934Z,100681.09
2023-12-09T11:55:33.543Z,100694.78
2023-12-09T11:58:00.015Z,100684.75
2023-12-09T12:00:27.264Z,100697.03
2023-12-09T12:02:53.717Z,100675.53
2023-12-09T12:05:21.074Z,100679.75
2023-12-09T12:07:47.597Z,100673.28
2023-12-09T12:10:16.008Z,100680.22
2023-12-09T12:12:43.584Z,100652.53
2023-12-09T12:15:10.861Z,100644.31
2023-12-09T12:17:39.261Z,100649.75
2023-12-09T12:20:07.901Z,100638.13
2023-12-09T12:22:34.764Z,100644.78
2023-12-09T12:25:01.516Z,100642.59
2023-12-09T12:27:27.917Z,100613.75
2023-12-09T12:29:55.902Z,100629.69
2023-12-09T12:32:22.332Z,100618.38
2023-12-09T12:34:48.805Z,100613.50
2023-12-09T12:37:15.264Z,100621.66
2023-12-09T12:39:42.208Z,100602.41
2023-12-09T12:42:09.562Z,100605.69
2023-12-09T12:44:36.400Z,100606.19
2023-12-09T12:47:02.886Z,100571.72
2023-12-09T12:49:36.302Z,100617.81
2023-12-09T12:52:04.434Z,100604.44
2023-12-09T12:54:30.818Z,100597.69
2023-12-09T12:56:57.325Z,100598.47
2023-12-09T12:59:23.763Z,100598.38
2023-12-09T13:01:50.175Z,100576.41
2023-12-09T13:04:17.670Z,100594.03
2023-12-09T13:06:44.489Z,100580.00
2023-12-09T13:09:12.318Z,100565.50
2023-12-09T13:11:38.771Z,100528.84
2023-12-09T13:14:06.058Z,100565.25
2023-12-09T13:16:32.621Z,100571.59
2023-12-09T13:18:59.095Z,100560.91
2023-12-09T13:21:26.115Z,100546.56
2023-12-09T13:23:52.811Z,100548.28
2023-12-09T13:26:19.269Z,100554.81
2023-12-09T13:28:45.740Z,100551.16
2023-12-09T13:31:12.127Z,100525.59
2023-12-09T13:33:38.730Z,100533.28
2023-12-09T13:36:05.861Z,100533.25
2023-12-09T13:38:32.354Z,100509.25
2023-12-09T13:40:59.922Z,100521.69
2023-12-09T13:43:26.719Z,100513.97
2023-12-09T13:45:53.174Z,100514.50
2023-12-09T13:48:19.882Z,100500.63
2023-12-09T13:50:46.549Z,100490.31
2023-12-09T13:53:13.319Z,100429.97
2023-12-09T13:55:40.455Z,100482.63
2023-12-09T13:58:07.777Z,100445.09
2023-12-09T14:00:34.587Z,100460.06
2023-12-09T14:03:01.211Z,100448.28
2023-12-09T14:05:28.114Z,100457.56
2023-12-09T14:07:55.260Z,100456.38
2023-12-09T14:10:21.686Z,100441.00
2023-12-09T14:12:48.988Z,100440.91
2023-12-09T14:15:15.620Z,100439.28
2023-12-09T14:17:43.403Z,100395.59
2023-12-09T14:20:12.948Z,100425.16
2023-12-09T14:22:39.754Z,100390.28
2023-12-09T14:25:06.451Z,100399.47
2023-12-09T14:27:33.105Z,100410.06
2023-12-09T14:29:59.553Z,100356.94
2023-12-09T14:32:26.221Z,100356.44
2023-12-09T14:34:53.038Z,100333.81
2023-12-09T14:37:19.610Z,100384.06
2023-12-09T14:39:46.305Z,100378.28
2023-12-09T14:42:12.714Z,100305.22
2023-12-09T14:44:39.244Z,100319.50
2023-12-09T14:47:05.859Z,100221.31
2023-12-09T14:49:32.414Z,100341.38
2023-12-09T14:51:58.915Z,100314.41
2023-12-09T14:54:25.481Z,100311.19
2023-12-09T14:56:52.694Z,100308.44
2023-12-09T14:59:19.636Z,100294.75
2023-12-09T15:01:46.098Z,100295.97
2023-12-09T15:04:12.613Z,100292.44
2023-12-09T15:06:39.354Z,100288.31
2023-12-09T15:09:05.906Z,100232.78
2023-12-09T15:11:32.332Z,100267.56
2023-12-09T15:13:58.733Z,100278.53
2023-12-09T15:16:25.254Z,100270.63
2023-12-09T15:18:52.099Z,100208.78
2023-12-09T15:21:18.624Z,100258.78
2023-12-09T15:23:45.614Z,100266.22
2023-12-09T15:26:12.380Z,100262.03
2023-12-09T15:28:39.025Z,100239.59
2023-12-09T15:31:05.499Z,100243.41
2023-12-09T15:33:32.158Z,100195.19
2023-12-09T15:35:58.885Z,100234.91
2023-12-09T15:38:26.196Z,100216.78
2023-12-09T15:40:52.673Z,100215.91
2023-12-09T15:43:19.305Z,100204.72
2023-12-09T15:45:45.829Z,100209.63
2023-12-09T15:48:12.653Z,100182.63
2023-12-09T15:50:39.458Z,100200.44
2023-12-09T15:53:05.973Z,100132.44
2023-12-09T15:55:33.642Z,100179.56
2023-12-09T15:58:00.427Z,100191.41
2023-12-09T16:00:27.103Z,100183.00
2023-12-09T16:02:54.007Z,100176.34
2023-12-09T16:05:20.755Z,100172.47
2023-12-09T16:07:47.598Z,100124.22
2023-12-09T16:10:14.086Z,100083.84
2023-12-09T16:12:40.949Z,100133.97
2023-12-09T16:15:08.183Z,100077.44
2023-12-09T16:17:36.091Z,100138.75
2023-12-09T16:20:05.481Z,100108.25
2023-12-09T16:22:31.982Z,100142.94
2023-12-09T16:24:58.571Z,100142.69
2023-12-09T16:27:25.076Z,100132.09
2023-12-09T16:29:52.609Z,99951.72
2023-12-09T16:32:19.313Z,100101.00
2023-12-09T16:34:45.807Z,100049.59
2023-12-09T16:37:12.930Z,99936.75
2023-12-09T16:39:39.840Z,99954.13
2023-12-09T16:42:06.417Z,100074.72
2023-12-09T16:44:32.946Z,100024.22
2023-12-09T16:46:59.664Z,100030.13
2023-12-09T16:49:26.218Z,99994.75
2023-12-09T16:51:52.869Z,99950.91
2023-12-09T16:54:19.352Z,99941.03
2023-12-09T16:56:45.944Z,99970.44
2023-12-09T16:59:12.417Z,99984.19
2023-12-09T17:01:39.466Z,99983.47
2023-12-09T17:04:06.680Z,99967.31
2023-12-09T17:06:33.941Z,99979.38
2023-12-09T17:09:01.253Z,99920.63
2023-12-09T17:11:28.176Z,99882.31
2023-12-09T17:13:54.657Z,99912.81
2023-12-09T17:16:21.186Z,99880.28
2023-12-09T17:18:47.739Z,99922.06
2023-12-09T17:21:14.685Z,99940.25
2023-12-09T17:23:41.960Z,99912.16
2023-12-09T17:26:08.706Z,99888.66
2023-12-09T17:28:35.361Z,99920.22
2023-12-09T17:31:02.222Z,99910.41
2023-12-09T17:33:28.892Z,99935.16
2023-12-09T17:35:55.499Z,99881.00
2023-12-09T17:38:22.020Z,99896.41
2023-12-09T17:40:48.418Z,99892.94
2023-12-09T17:43:14.889Z,99887.00
2023-12-09T17:45:41.559Z,99877.44
2023-12-09T17:48:08.230Z,99888.22
2023-12-09T17:50:34.992Z,99773.97
2023-12-09T17:53:01.356Z,99898.13
2023-12-09T17:55:27.954Z,99882.38
2023-12-09T17:57:56.805Z,99857.25
2023-12-09T18:00:23.594Z,99854.22
2023-12-09T18:02:50.170Z,99816.75
2023-12-09T18:05:16.725Z,99690.63
2023-12-09T18:07:43.352Z,99822.34
2023-12-09T18:10:09.987Z,99813.44
2023-12-09T18:12:36.382Z,99833.16
2023-12-09T18:15:02.925Z,99829.03
2023-12-09T18:17:29.441Z,99825.44
2023-12-09T18:19:56.965Z,99773.63
2023-12-09T18:22:23.484Z,99838.91
2023-12-09T18:24:50.129Z,99837.94
2023-12-09T18:27:16.946Z,99831.91
2023-12-09T18:29:43.905Z,99752.50
2023-12-09T18:32:15.813Z,99824.13
2023-12-09T18:34:43.179Z,99690.78
2023-12-09T18:37:10.895Z,99783.50
2023-12-09T18:39:37.327Z,99803.34
2023-12-09T18:42:03.963Z,99809.75
2023-12-09T18:44:30.457Z,99799.22
2023-12-09T18:46:56.980Z,99768.81
2023-12-09T18:49:23.537Z,99749.00
2023-12-09T18:51:50.159Z,99625.22
2023-12-09T18:54:16.736Z,99670.16
2023-12-09T18:56:43.235Z,99776.81
2023-12-09T18:59:09.640Z,99671.78
2023-12-09T19:01:36.199Z,99774.22
2023-12-09T19:04:03.355Z,99736.88
2023-12-09T19:06:32.708Z,99755.16
2023-12-09T19:09:03.730Z,99763.63
2023-12-09T19:11:30.294Z,99721.53
2023-12-09T19:13:56.702Z,99711.88
2023-12-09T19:16:23.177Z,99707.19
2023-12-09T19:18:49.660Z,99741.97
2023-12-09T19:21:16.211Z,99741.28
2023-12-09T19:23:42.621Z,99717.44
2023-12-09T19:26:09.122Z,99725.78
2023-12-09T19:28:35.511Z,99727.31
2023-12-09T19:31:01.942Z,99684.03
2023-12-09T19:33:29.691Z,99643.06
2023-12-09T19:35:56.388Z,99697.56
2023-12-09T19:38:22.839Z,99510.09
2023-12-09T19:40:49.397Z,99622.63
2023-12-09T19:43:16.034Z,99664.28
2023-12-09T19:45:42.489Z,99615.53
2023-12-09T19:48:09.151Z,99616.72
2023-12-09T19:50:35.696Z,99617.50
2023-12-09T19:53:04.876Z,99525.94
2023-12-09T19:55:31.400Z,99631.34
2023-12-09T19:57:58.275Z,99587.75
2023-12-09T20:00:24.723Z,99622.59
2023-12-09T20:02:51.304Z,99553.53
2023-12-09T20:05:19.186Z,99575.38
2023-12-09T20:07:45.987Z,99586.66
2023-12-09T20:10:12.416Z,99499.78
2023-12-09T20:12:38.990Z,99595.06
2023-12-09T20:15:07.462Z,99605.16
2023-12-09T20:17:34.367Z,99599.06
2023-12-09T20:20:01.404Z,99593.06
2023-12-09T20:22:28.182Z,99606.97
2023-12-09T20:24:57.026Z,99454.13
2023-12-09T20:27:23.714Z,99584.88
2023-12-09T20:29:55.174Z,99604.00
2023-12-09T20:32:22.263Z,99585.25
2023-12-09T20:34:49.563Z,99457.75
2023-12-09T20:37:16.155Z,99560.72
2023-12-09T20:39:42.670Z,99512.66
2023-12-09T20:42:09.178Z,99572.59
2023-12-09T20:44:35.628Z,99546.59
2023-12-09T20:47:02.165Z,99545.41
2023-12-09T20:49:28.707Z,99555.13
2023-12-09T20:51:55.202Z,99565.38
2023-12-09T20:54:21.705Z,99558.41
2023-12-09T20:56:49.160Z,99532.13
2023-12-09T20:59:16.171Z,99534.66
2023-12-09T21:01:46.470Z,99530.84
2023-12-09T21:04:14.014Z,99503.88
2023-12-09T21:06:40.876Z,99556.34
2023-12-09T21:09:08.252Z,99525.34
2023-12-09T21:11:38.466Z,99519.28
2023-12-09T21:14:08.052Z,99530.78
2023-12-09T21:16:35.654Z,99506.69
2023-12-09T21:19:03.342Z,99540.34
2023-12-09T21:21:32.918Z,99508.50
2023-12-09T21:23:59.463Z,99535.97
2023-12-09T21:26:25.964Z,99529.72
2023-12-09T21:28:52.409Z,99454.50
2023-12-09T21:31:18.862Z,99539.44
2023-12-09T21:33:45.542Z,99500.19
2023-12-09T21:36:16.133Z,99546.78
2023-12-09T21:38:43.964Z,99531.84
2023-12-09T21:41:21.560Z,99527.47
2023-12-09T21:43:51.316Z,99484.31
2023-12-09T21:46:22.536Z,99522.47
2023-12-09T21:48:49.949Z,99497.19
2023-12-09T21:51:17.492Z,99518.69
2023-12-09T21:53:44.076Z,99504.75
2023-12-09T21:56:23.876Z,99514.50
2023-12-09T21:58:50.947Z,99494.84
2023-12-09T22:01:18.267Z,99478.06
2023-12-09T22:03:45.010Z,99457.50
2023-12-09T22:06:13.593Z,99383.84
2023-12-09T22:08:41.252Z,99424.81
2023-12-09T22:11:09.842Z,99436.69
2023-12-09T22:13:36.388Z,99402.56
2023-12-09T22:16:02.804Z,99392.13
2023-12-09T22:18:29.601Z,99403.28
2023-12-09T22:20:56.166Z,99451.91
2023-12-09T22:23:22.581Z,99466.56
2023-12-09T22:25:48.964Z,99477.94
2023-12-09T22:28:15.468Z,99439.84
2023-12-09T22:30:41.909Z,99457.78
2023-12-09T22:33:08.471Z,99502.78
2023-12-09T22:35:35.259Z,99514.69
2023-12-09T22:38:01.725Z,99467.34
2023-12-09T22:40:28.303Z,99431.22
2023-12-09T22:42:54.863Z,99508.69
2023-12-09T22:45:21.476Z,99519.59
2023-12-09T22:47:48.224Z,99468.00
2023-12-09T22:50:14.926Z,99487.03
2023-12-09T22:52:41.414Z,99511.28
2023-12-09T22:55:08.324Z,99446.41
2023-12-09T22:57:34.790Z,99501.06
2023-12-09T23:00:01.348Z,99390.63
2023-12-09T23:02:28.039Z,99480.22
2023-12-09T23:04:54.890Z,99450.50
2023-12-09T23:07:21.315Z,99481.03
2023-12-09T23:09:47.814Z,99481.03
2023-12-09T23:12:14.501Z,99467.06
2023-12-09T23:14:40.950Z,99501.56
2023-12-09T23:17:07.404Z,99381.19
2023-12-09T23:19:34.042Z,99439.38
2023-12-09T23:22:00.528Z,99509.34
2023-12-09T23:24:27.021Z,99487.41
2023-12-09T23:26:54.800Z,99483.00
2023-12-09T23:29:21.382Z,99407.19
2023-12-09T23:31:47.852Z,99487.97
2023-12-09T23:34:16.544Z,99504.78
2023-12-09T23:36:43.097Z,99464.13
2023-12-09T23:39:09.628Z,99474.72
2023-12-09T23:41:36.138Z,99509.97
2023-12-09T23:44:02.575Z,99521.06
2023-12-09T23:46:29.062Z,99469.50
2023-12-09T23:48:57.073Z,99492.25
2023-12-09T23:51:24.250Z,99503.16
2023-12-09T23:53:50.689Z,99510.63
2023-12-09T23:56:24.643Z,99506.88
2023-12-09T23:58:51.099Z,99498.59
